Time;durP1;ratioP1;P1;durP2;ratioP2;P2;SDS_P1;SDS_P2;PMS_P1;PMS_P2;Temp;Humidity;BMP_temperature;BMP_pressure;BME280_temperature;BME280_humidity;BME280_pressure;Samples;Min_cycle;Max_cycle;Signal;HPM_P1;HPM_P2
2023/07/03 00:01:16;;;;;;;19.67;3.38;;;;;;;15.60;95.32;100696.47;6218614;23;20008;-73
2023/07/03 00:03:45;;;;;;;20.92;3.70;;;;;;;15.55;96.29;100701.59;6245053;23;20066;-72
2023/07/03 00:06:10;;;;;;;18.35;3.17;;;;;;;15.55;96.49;100704.38;6218784;23;20066;-72
2023/07/03 00:08:36;;;;;;;15.23;3.10;;;;;;;15.54;96.23;100710.03;6218473;23;20020;-73
2023/07/03 00:11:04;;;;;;;20.88;3.75;;;;;;;15.49;96.67;100690.34;6218603;23;20004;-72
2023/07/03 00:13:29;;;;;;;18.48;3.55;;;;;;;15.53;96.64;100694.53;6218715;23;20004;-72
2023/07/03 00:16:03;;;;;;;20.27;3.00;;;;;;;15.50;97.13;100700.34;6218667;23;20472;-72
2023/07/03 00:18:29;;;;;;;21.52;3.55;;;;;;;15.54;97.67;100702.63;6218834;23;20016;-72
2023/07/03 00:20:55;;;;;;;22.67;3.50;;;;;;;15.47;98.45;100700.66;6245338;23;20369;-72
2023/07/03 00:23:21;;;;;;;16.25;3.00;;;;;;;15.45;97.99;100692.56;6168890;23;20032;-73
2023/07/03 00:25:48;;;;;;;21.75;3.30;;;;;;;15.44;98.57;100699.94;6244852;23;20008;-72
2023/07/03 00:28:13;;;;;;;23.35;3.40;;;;;;;15.53;98.52;100695.38;6218611;23;20062;-73
2023/07/03 00:30:39;;;;;;;20.40;3.20;;;;;;;15.43;99.51;100695.47;6219001;23;20019;-73
2023/07/03 00:33:04;;;;;;;24.92;3.38;;;;;;;15.48;100.00;100697.75;6195454;23;20009;-73
2023/07/03 00:35:29;;;;;;;14.27;2.88;;;;;;;15.44;100.00;100704.59;6220176;23;20440;-73
2023/07/03 00:37:55;;;;;;;21.67;3.63;;;;;;;15.37;100.00;100698.84;6247149;23;20019;-73
2023/07/03 00:40:20;;;;;;;19.73;2.97;;;;;;;15.37;100.00;100692.47;6220871;23;20451;-73
2023/07/03 00:42:46;;;;;;;23.50;3.80;;;;;;;15.31;100.00;100695.84;6246900;23;20051;-74
2023/07/03 00:45:11;;;;;;;27.33;3.83;;;;;;;15.23;100.00;100700.25;6220296;23;20094;-72
2023/07/03 00:47:37;;;;;;;18.15;3.20;;;;;;;15.32;100.00;100687.41;6220543;23;20461;-73
2023/07/03 00:50:03;;;;;;;17.63;3.40;;;;;;;15.28;100.00;100693.41;6220316;23;20008;-73
2023/07/03 00:52:29;;;;;;;18.17;4.28;;;;;;;15.33;100.00;100688.28;6195130;23;20324;-73
2023/07/03 00:54:54;;;;;;;21.58;3.80;;;;;;;15.25;100.00;100695.44;6220148;23;20011;-72
2023/07/03 00:57:23;;;;;;;19.00;3.17;;;;;;;15.34;100.00;100692.78;6195183;23;20463;-72
2023/07/03 00:59:49;;;;;;;19.90;3.75;;;;;;;15.30;100.00;100685.81;6220400;23;20078;-73
2023/07/03 01:02:22;;;;;;;21.50;5.03;;;;;;;15.28;100.00;100682.38;6247853;23;20004;-74
2023/07/03 01:04:54;;;;;;;23.60;3.63;;;;;;;15.27;100.00;100686.16;6220505;23;20003;-73
2023/07/03 01:07:23;;;;;;;;;;;;;;;15.27;100.00;100689.78;6248028;23;20310;-73
2023/07/03 01:10:04;;;;;;;26.48;4.20;;;;;;;15.27;100.00;100684.25;6219934;23;19910;-72
2023/07/03 01:12:33;;;;;;;22.00;3.63;;;;;;;15.36;100.00;100687.97;6219903;23;20012;-73
2023/07/03 01:15:02;;;;;;;25.75;3.30;;;;;;;15.32;100.00;100681.91;6219952;23;20004;-75
2023/07/03 01:17:29;;;;;;;23.88;3.30;;;;;;;15.35;100.00;100691.75;6220221;23;20062;-73
2023/07/03 01:19:57;;;;;;;22.33;4.22;;;;;;;15.30;100.00;100686.72;6246835;23;20012;-73
2023/07/03 01:22:27;;;;;;;24.15;3.97;;;;;;;15.33;100.00;100685.50;6246665;23;20011;-73
2023/07/03 01:24:58;;;;;;;27.70;3.63;;;;;;;15.27;100.00;100688.91;6220379;23;20019;-73
2023/07/03 01:27:28;;;;;;;29.02;3.90;;;;;;;15.33;100.00;100682.75;6246971;23;20427;-73
2023/07/03 01:29:54;;;;;;;28.15;3.90;;;;;;;15.19;100.00;100670.38;6219971;23;20286;-73
2023/07/03 01:32:23;;;;;;;23.25;3.30;;;;;;;15.28;100.00;100687.88;6246746;23;20011;-73
2023/07/03 01:34:50;;;;;;;38.97;3.97;;;;;;;15.20;100.00;100670.22;6194643;23;20016;-73
2023/07/03 01:37:17;;;;;;;21.40;3.53;;;;;;;15.16;100.00;100671.56;6219866;23;20367;-72
2023/07/03 01:39:45;;;;;;;25.55;3.78;;;;;;;15.30;100.00;100669.28;6194625;23;20095;-72
2023/07/03 01:42:12;;;;;;;30.02;3.92;;;;;;;15.21;100.00;100668.34;6219649;23;20062;-72
2023/07/03 01:44:38;;;;;;;26.15;3.60;;;;;;;15.22;100.00;100681.09;6246794;23;20008;-72
2023/07/03 01:47:11;;;;;;;29.83;3.20;;;;;;;15.20;100.00;100670.22;6246504;23;20012;-73
2023/07/03 01:49:37;;;;;;;30.48;3.75;;;;;;;15.21;100.00;100676.59;6219801;23;20008;-73
2023/07/03 01:52:12;;;;;;;31.60;3.72;;;;;;;15.20;100.00;100683.13;6194693;23;20015;-74
2023/07/03 01:54:46;;;;;;;31.92;4.53;;;;;;;15.17;100.00;100669.69;6219469;23;20008;-73
2023/07/03 01:57:16;;;;;;;26.20;3.30;;;;;;;15.04;100.00;100665.41;6220099;23;20004;-73
2023/07/03 01:59:42;;;;;;;33.63;3.90;;;;;;;15.17;100.00;100666.94;6219756;23;20083;-73
2023/07/03 02:02:18;;;;;;;23.40;4.05;;;;;;;15.17;100.00;100669.69;6219686;23;20016;-75
2023/07/03 02:04:52;;;;;;;21.70;3.78;;;;;;;15.12;100.00;100659.13;6246544;23;20004;-73
2023/07/03 02:07:19;;;;;;;28.08;3.92;;;;;;;15.11;100.00;100667.53;6246334;23;20401;-72
2023/07/03 02:09:45;;;;;;;28.50;3.83;;;;;;;15.10;100.00;100674.94;6246541;23;20008;-73
2023/07/03 02:12:11;;;;;;;32.83;4.28;;;;;;;15.01;100.00;100667.59;6194181;23;20436;-73
2023/07/03 02:14:38;;;;;;;27.02;4.03;;;;;;;15.05;100.00;100669.00;6246023;23;20008;-73
2023/07/03 02:17:06;;;;;;;29.35;3.55;;;;;;;14.94;100.00;100667.34;6169844;23;20031;-73
2023/07/03 02:19:33;;;;;;;25.08;3.92;;;;;;;14.96;100.00;100661.69;6219440;23;20014;-73
2023/07/03 02:21:59;;;;;;;29.48;4.57;;;;;;;14.89;100.00;100670.56;6245617;23;20011;-73
2023/07/03 02:24:25;;;;;;;27.83;4.60;;;;;;;14.95;100.00;100668.22;6153392;23;20079;-73
2023/07/03 02:26:51;;;;;;;22.75;3.78;;;;;;;14.88;100.00;100667.97;6186080;23;20369;-72
2023/07/03 02:29:17;;;;;;;30.77;5.05;;;;;;;14.80;100.00;100665.97;6185794;23;20079;-73
2023/07/03 02:31:42;;;;;;;38.58;5.47;;;;;;;14.83;100.00;100660.16;6184291;23;20048;-72
2023/07/03 02:34:08;;;;;;;24.60;4.15;;;;;;;14.91;100.00;100658.53;6159467;23;20083;-75
2023/07/03 02:36:37;;;;;;;24.90;3.80;;;;;;;14.80;100.00;100660.47;6159527;23;20314;-73
2023/07/03 02:39:07;;;;;;;23.83;4.22;;;;;;;14.79;100.00;100666.13;6184332;23;20016;-73
2023/07/03 02:41:33;;;;;;;33.95;5.18;;;;;;;14.82;100.00;100650.19;6185812;23;20459;-73
2023/07/03 02:43:59;;;;;;;31.95;6.35;;;;;;;14.75;100.00;100646.28;6159602;23;20075;-73
2023/07/03 02:46:27;;;;;;;20.73;3.83;;;;;;;14.81;100.00;100648.44;6184349;23;20009;-73
2023/07/03 02:48:52;;;;;;;30.50;4.05;;;;;;;14.74;100.00;100652.84;6159342;23;20099;-72
2023/07/03 02:51:18;;;;;;;34.33;5.35;;;;;;;14.74;100.00;100643.69;6159057;23;20016;-72
2023/07/03 02:53:44;;;;;;;34.90;5.05;;;;;;;14.70;100.00;100648.63;6184903;23;20016;-73
2023/07/03 02:56:09;;;;;;;37.40;4.70;;;;;;;14.68;100.00;100648.78;6185762;23;20040;-72
2023/07/03 02:58:35;;;;;;;42.00;6.13;;;;;;;14.73;100.00;100637.31;6184157;23;20020;-72
2023/07/03 03:01:01;;;;;;;41.10;5.15;;;;;;;14.68;100.00;100647.94;6159068;23;20365;-72
2023/07/03 03:03:29;;;;;;;28.27;4.30;;;;;;;14.64;100.00;100635.47;6183955;23;20016;-73
2023/07/03 03:05:55;;;;;;;22.30;4.97;;;;;;;14.53;100.00;100647.53;6159061;23;20012;-72
2023/07/03 03:08:22;;;;;;;33.40;5.90;;;;;;;14.59;100.00;100637.78;6158924;23;20045;-72
2023/07/03 03:10:48;;;;;;;37.53;5.43;;;;;;;14.49;100.00;100646.97;6183810;23;20672;-72
2023/07/03 03:13:13;;;;;;;30.33;4.80;;;;;;;14.53;100.00;100642.88;6158998;23;20017;-72
2023/07/03 03:15:40;;;;;;;26.50;4.78;;;;;;;14.44;100.00;100643.78;6208965;23;20068;-73
2023/07/03 03:18:05;;;;;;;27.60;4.18;;;;;;;14.40;100.00;100634.09;6185218;23;20009;-72
2023/07/03 03:20:31;;;;;;;39.10;5.28;;;;;;;14.38;100.00;100636.16;6135168;23;20138;-73
2023/07/03 03:22:58;;;;;;;36.15;4.18;;;;;;;14.48;100.00;100639.72;6185038;23;20433;-72
2023/07/03 03:25:23;;;;;;;29.88;4.63;;;;;;;14.36;100.00;100629.06;6158346;23;20013;-73
2023/07/03 03:27:48;;;;;;;40.42;4.80;;;;;;;14.35;100.00;100625.44;6185526;23;20275;-72
2023/07/03 03:30:14;;;;;;;39.13;5.50;;;;;;;14.31;100.00;100635.91;6183945;23;20067;-72
2023/07/03 03:32:40;;;;;;;37.90;5.00;;;;;;;14.36;100.00;100635.41;6158671;23;20012;-72
2023/07/03 03:35:06;;;;;;;28.55;4.10;;;;;;;14.43;100.00;100636.56;6183726;23;20015;-71
2023/07/03 03:37:32;;;;;;;30.73;5.90;;;;;;;14.30;100.00;100641.56;6159103;23;20008;-72
2023/07/03 03:39:57;;;;;;;31.52;5.00;;;;;;;14.30;100.00;100645.16;6158992;23;20437;-72
2023/07/03 03:42:22;;;;;;;41.45;6.75;;;;;;;14.35;100.00;100641.97;6158587;23;20055;-73
2023/07/03 03:44:48;;;;;;;33.38;4.50;;;;;;;14.27;100.00;100634.44;6159108;23;20124;-72
2023/07/03 03:47:13;;;;;;;47.92;5.68;;;;;;;14.30;100.00;100641.56;6183370;23;20016;-72
2023/07/03 03:49:39;;;;;;;40.80;5.50;;;;;;;14.32;100.00;100639.50;6183631;23;20096;-73
2023/07/03 03:52:05;;;;;;;39.85;4.93;;;;;;;14.26;100.00;100642.84;6158695;23;20013;-73
2023/07/03 03:54:31;;;;;;;44.63;6.35;;;;;;;14.26;100.00;100632.69;6183534;23;20041;-72
2023/07/03 03:56:56;;;;;;;39.05;5.18;;;;;;;14.25;100.00;100643.88;6134045;23;20341;-73
2023/07/03 03:59:22;;;;;;;42.45;6.45;;;;;;;14.43;100.00;100636.56;6183748;23;20013;-73
2023/07/03 04:01:49;;;;;;;40.10;5.22;;;;;;;14.34;100.00;100635.56;6184902;23;20084;-73
2023/07/03 04:04:15;;;;;;;29.67;4.13;;;;;;;14.32;100.00;100639.50;6185199;23;20009;-73
2023/07/03 04:06:41;;;;;;;42.33;5.78;;;;;;;14.22;100.00;100624.91;6183028;23;20013;-73
2023/07/03 04:09:07;;;;;;;30.05;5.20;;;;;;;14.31;100.00;100632.25;6185388;23;20416;-73
2023/07/03 04:11:34;;;;;;;36.00;4.32;;;;;;;14.27;100.00;100641.84;6183689;23;20016;-72
2023/07/03 04:13:59;;;;;;;32.28;4.85;;;;;;;14.25;100.00;100641.13;6183545;23;20406;-72
2023/07/03 04:16:28;;;;;;;38.78;5.43;;;;;;;14.30;100.00;100636.03;6185200;23;20088;-73
2023/07/03 04:18:53;;;;;;;42.45;5.10;;;;;;;14.29;100.00;100640.66;6184889;23;20063;-73
2023/07/03 04:21:19;;;;;;;48.55;5.53;;;;;;;14.34;100.00;100642.97;6183887;23;20355;-73
2023/07/03 04:23:44;;;;;;;37.47;6.45;;;;;;;14.50;100.00;100642.31;6188590;23;20017;-73
2023/07/03 04:26:10;;;;;;;34.47;5.68;;;;;;;14.45;100.00;100647.44;6218871;23;20012;-73
2023/07/03 04:28:35;;;;;;;36.22;4.85;;;;;;;14.44;100.00;100632.78;6218823;23;20008;-73
2023/07/03 04:31:04;;;;;;;41.15;6.03;;;;;;;14.46;100.00;100641.78;6244999;23;20004;-73
2023/07/03 04:33:29;;;;;;;31.30;5.00;;;;;;;14.44;100.00;100640.19;6218672;23;20095;-73
2023/07/03 04:35:55;;;;;;;41.75;5.50;;;;;;;14.40;100.00;100644.28;6218590;23;20044;-73
2023/07/03 04:38:23;;;;;;;31.20;5.35;;;;;;;14.45;100.00;100653.81;6168315;23;20526;-72
2023/07/03 04:40:51;;;;;;;39.40;5.00;;;;;;;14.56;100.00;100643.59;6218371;23;20313;-73
2023/07/03 04:43:17;;;;;;;40.25;5.43;;;;;;;14.53;100.00;100648.41;6218240;23;20077;-73
2023/07/03 04:45:48;;;;;;;48.88;6.53;;;;;;;14.56;100.00;100646.34;6193358;23;20005;-73
2023/07/03 04:48:15;;;;;;;32.40;5.63;;;;;;;14.64;100.00;100644.63;6218427;23;20400;-73
2023/07/03 04:50:40;;;;;;;48.28;6.75;;;;;;;14.55;100.00;100644.63;6244919;23;20016;-73
2023/07/03 04:53:06;;;;;;;30.83;5.20;;;;;;;14.67;100.00;100649.78;6218402;23;20443;-73
2023/07/03 04:55:33;;;;;;;40.08;4.95;;;;;;;14.60;100.00;100647.81;6218584;23;20012;-73
2023/07/03 04:57:59;;;;;;;30.85;5.70;;;;;;;14.61;100.00;100652.28;6218026;23;20387;-72
2023/07/03 05:00:27;;;;;;;26.45;4.30;;;;;;;14.80;100.00;100654.09;6245185;23;20004;-73
2023/07/03 05:02:57;;;;;;;30.35;5.15;;;;;;;14.82;100.00;100649.28;6245192;23;20008;-72
2023/07/03 05:05:22;;;;;;;33.58;5.18;;;;;;;14.92;100.00;100649.22;6245033;23;20142;-73
2023/07/03 05:07:47;;;;;;;44.38;5.97;;;;;;;14.88;100.00;100662.47;6218365;23;20432;-73
2023/07/03 05:10:15;;;;;;;33.72;5.60;;;;;;;14.82;100.00;100663.94;6193041;23;20031;-73
2023/07/03 05:12:41;;;;;;;41.63;5.75;;;;;;;14.92;100.00;100669.41;6218591;23;20432;-73
2023/07/03 05:15:08;;;;;;;47.15;7.32;;;;;;;14.95;100.00;100674.59;6217914;23;20022;-72
2023/07/03 05:17:37;;;;;;;38.42;6.18;;;;;;;14.95;100.00;100673.72;6219200;23;20035;-72
2023/07/03 05:20:05;;;;;;;38.67;5.40;;;;;;;15.07;100.00;100675.25;6219910;23;20432;-74
2023/07/03 05:22:31;;;;;;;35.22;5.40;;;;;;;15.15;100.00;100668.94;6170636;23;20012;-72
2023/07/03 05:24:57;;;;;;;32.67;4.90;;;;;;;15.28;100.00;100677.69;6169901;23;20496;-74
2023/07/03 05:27:23;;;;;;;42.50;7.50;;;;;;;15.55;100.00;100679.53;6194826;23;20015;-73
2023/07/03 05:29:49;;;;;;;28.05;6.03;;;;;;;15.49;100.00;100679.28;6194689;23;20012;-73
2023/07/03 05:32:14;;;;;;;28.20;5.95;;;;;;;15.48;100.00;100680.31;6219870;23;20381;-72
2023/07/03 05:34:40;;;;;;;39.17;7.45;;;;;;;15.42;100.00;100688.19;6219325;23;20040;-72
2023/07/03 05:37:05;;;;;;;38.20;5.47;;;;;;;15.64;100.00;100688.75;6194875;23;20023;-72
2023/07/03 05:39:31;;;;;;;35.45;4.50;;;;;;;15.61;100.00;100694.59;6219637;23;20043;-73
2023/07/03 05:41:56;;;;;;;30.98;5.28;;;;;;;15.59;100.00;100686.47;6219963;23;20023;-72
2023/07/03 05:44:22;;;;;;;39.58;5.55;;;;;;;15.47;100.00;100696.00;6194868;23;20376;-72
2023/07/03 05:46:47;;;;;;;35.47;4.78;;;;;;;15.77;100.00;100696.66;6194715;23;20332;-74
2023/07/03 05:49:13;;;;;;;32.63;4.75;;;;;;;15.87;100.00;100697.44;6194581;23;20392;-72
2023/07/03 05:51:38;;;;;;;35.58;5.05;;;;;;;15.73;100.00;100712.63;6194499;23;20008;-72
2023/07/03 05:54:04;;;;;;;36.10;5.78;;;;;;;15.76;100.00;100698.56;6194397;23;20020;-73
2023/07/03 05:56:29;;;;;;;40.97;7.10;;;;;;;15.61;100.00;100700.97;6194683;23;20309;-75
2023/07/03 05:58:55;;;;;;;31.40;4.97;;;;;;;15.62;100.00;100701.84;6194699;23;20008;-72
2023/07/03 06:01:21;;;;;;;31.27;4.38;;;;;;;15.77;100.00;100705.81;6194764;23;20424;-73
2023/07/03 06:03:47;;;;;;;28.45;4.65;;;;;;;15.98;100.00;100694.41;6219274;23;20201;-73
2023/07/03 06:06:13;;;;;;;32.97;4.75;;;;;;;15.83;100.00;100700.69;6219680;23;20008;-73
2023/07/03 06:08:40;;;;;;;23.33;4.45;;;;;;;15.78;100.00;100712.19;6218939;23;20012;-74
2023/07/03 06:11:05;;;;;;;33.72;4.43;;;;;;;15.86;100.00;100703.13;6219628;23;20012;-72
2023/07/03 06:13:31;;;;;;;48.72;7.78;;;;;;;15.94;100.00;100701.28;6194080;23;20023;-72
2023/07/03 06:15:56;;;;;;;30.40;5.18;;;;;;;16.14;100.00;100707.47;6219115;23;20012;-72
2023/07/03 06:18:22;;;;;;;34.20;4.78;;;;;;;16.30;100.00;100709.50;6194067;23;20122;-72
2023/07/03 06:20:48;;;;;;;25.55;4.60;;;;;;;16.15;100.00;100714.75;6245794;23;20039;-72
2023/07/03 06:23:15;;;;;;;26.17;4.43;;;;;;;16.14;100.00;100718.53;6218940;23;20039;-72
2023/07/03 06:25:40;;;;;;;39.03;6.68;;;;;;;15.99;100.00;100707.19;6245434;23;20396;-72
2023/07/03 06:28:06;;;;;;;29.38;5.28;;;;;;;16.13;100.00;100707.63;6168858;23;20039;-72
2023/07/03 06:30:32;;;;;;;36.03;5.97;;;;;;;16.15;100.00;100711.09;6193625;23;20497;-72
2023/07/03 06:32:57;;;;;;;25.90;4.70;;;;;;;16.23;100.00;100715.81;6245691;23;20016;-73
2023/07/03 06:35:22;;;;;;;32.17;4.15;;;;;;;16.27;100.00;100711.72;6218876;23;20015;-72
2023/07/03 06:37:48;;;;;;;27.77;5.88;;;;;;;16.50;100.00;100704.59;6218993;23;20407;-71
2023/07/03 06:40:15;;;;;;;30.83;5.40;;;;;;;16.40;100.00;100706.63;6219013;23;20776;-72
2023/07/03 06:42:41;;;;;;;23.85;4.72;;;;;;;16.79;100.00;100703.38;6194389;23;20013;-72
2023/07/03 06:45:07;;;;;;;29.63;5.40;;;;;;;16.98;100.00;100710.56;6218834;23;20019;-72
2023/07/03 06:47:33;;;;;;;33.65;5.28;;;;;;;17.15;100.00;100707.84;6193984;23;20448;-72
2023/07/03 06:49:58;;;;;;;28.52;4.70;;;;;;;16.93;100.00;100709.34;6218882;23;20008;-72
2023/07/03 06:52:24;;;;;;;31.98;4.82;;;;;;;16.89;100.00;100708.81;6193698;23;20008;-72
2023/07/03 06:54:49;;;;;;;27.67;4.65;;;;;;;17.18;100.00;100707.50;6218723;23;20039;-72
2023/07/03 06:57:15;;;;;;;39.42;6.80;;;;;;;16.94;100.00;100700.88;6193712;23;20065;-72
2023/07/03 06:59:40;;;;;;;26.92;4.32;;;;;;;17.05;100.00;100714.41;6218799;23;20012;-73
2023/07/03 07:02:06;;;;;;;28.02;4.88;;;;;;;17.15;100.00;100703.19;6218649;23;20008;-72
2023/07/03 07:04:32;;;;;;;35.88;5.18;;;;;;;17.56;100.00;100705.16;6218841;23;20008;-73
2023/07/03 07:06:57;;;;;;;28.88;4.40;;;;;;;18.49;100.00;100690.94;6245534;23;20388;-73
2023/07/03 07:09:23;;;;;;;27.58;4.45;;;;;;;19.16;100.00;100709.09;6218595;23;20010;-71
2023/07/03 07:11:48;;;;;;;30.38;4.68;;;;;;;18.98;100.00;100712.13;6218754;23;20061;-74
2023/07/03 07:14:14;;;;;;;21.67;4.35;;;;;;;19.06;100.00;100714.84;6245392;23;20083;-72
2023/07/03 07:16:40;;;;;;;28.73;4.82;;;;;;;18.78;100.00;100705.25;6218668;23;20340;-72
2023/07/03 07:19:10;;;;;;;26.50;4.80;;;;;;;18.55;100.00;100708.78;6245381;23;20004;-72
2023/07/03 07:21:38;;;;;;;30.02;5.00;;;;;;;18.59;100.00;100718.47;6193419;23;20082;-73
2023/07/03 07:24:24;;;;;;;18.38;4.38;;;;;;;17.81;100.00;100709.69;6244811;23;20023;-73
2023/07/03 07:26:54;;;;;;;32.78;4.97;;;;;;;17.87;100.00;100707.28;6218489;23;20035;-73
2023/07/03 07:29:21;;;;;;;25.35;4.28;;;;;;;18.27;100.00;100711.97;6218585;23;20399;-73
2023/07/03 07:31:46;;;;;;;22.83;4.00;;;;;;;18.02;100.00;100707.47;6218679;23;20020;-73
2023/07/03 07:34:12;;;;;;;26.52;4.80;;;;;;;18.12;100.00;100711.81;6193411;23;20012;-73
2023/07/03 07:36:38;;;;;;;34.33;4.47;;;;;;;18.34;100.00;100717.66;6218650;23;20091;-73
2023/07/03 07:39:04;;;;;;;26.33;4.30;;;;;;;18.64;100.00;100718.78;6193327;23;20075;-73
2023/07/03 07:41:30;;;;;;;23.38;3.88;;;;;;;18.94;100.00;100720.97;6218343;23;20365;-74
2023/07/03 07:43:58;;;;;;;25.23;3.83;;;;;;;19.39;100.00;100730.47;6218642;23;20455;-73
2023/07/03 07:46:28;;;;;;;19.05;3.72;;;;;;;19.98;95.92;100721.59;6218297;23;20008;-73
2023/07/03 07:48:55;;;;;;;23.58;3.95;;;;;;;20.57;92.36;100718.91;6245237;23;20004;-73
2023/07/03 07:51:20;;;;;;;19.67;3.55;;;;;;;19.78;93.38;100718.47;6245020;23;20079;-73
2023/07/03 07:53:46;;;;;;;24.15;3.55;;;;;;;19.56;94.18;100721.00;6168565;23;20345;-73
2023/07/03 07:56:13;;;;;;;23.58;4.20;;;;;;;19.13;95.51;100728.88;6193410;23;20012;-73
2023/07/03 07:58:39;;;;;;;28.10;4.15;;;;;;;18.43;97.51;100721.28;6193497;23;20058;-73
2023/07/03 08:01:05;;;;;;;15.60;3.10;;;;;;;18.27;98.11;100717.50;6193361;23;20008;-72
2023/07/03 08:03:31;;;;;;;27.45;4.43;;;;;;;18.55;96.51;100729.06;6193831;23;20016;-73
2023/07/03 08:06:01;;;;;;;21.83;4.05;;;;;;;18.57;95.94;100730.78;6245097;23;20309;-76
2023/07/03 08:08:27;;;;;;;17.08;3.47;;;;;;;19.26;92.90;100734.69;6193337;23;20131;-74
2023/07/03 08:10:54;;;;;;;22.35;4.35;;;;;;;18.81;91.98;100730.72;6218661;23;20455;-73
2023/07/03 08:13:20;;;;;;;20.27;3.72;;;;;;;19.10;93.99;100745.88;6244917;23;20008;-73
2023/07/03 08:15:46;;;;;;;24.73;4.38;;;;;;;19.28;88.65;100740.97;6218178;23;20331;-73
2023/07/03 08:18:12;;;;;;;23.92;4.47;;;;;;;20.21;85.70;100752.13;6218450;23;20008;-74
2023/07/03 08:20:38;;;;;;;20.38;3.88;;;;;;;20.28;83.21;100741.97;6193585;23;20349;-73
2023/07/03 08:23:03;;;;;;;17.52;3.42;;;;;;;20.37;81.04;100745.56;6218190;23;20012;-73
2023/07/03 08:25:28;;;;;;;17.80;3.40;;;;;;;19.89;83.25;100737.47;6192857;23;20016;-74
2023/07/03 08:27:54;;;;;;;13.95;3.45;;;;;;;19.29;85.37;100734.34;6193436;23;20015;-73
2023/07/03 08:30:21;;;;;;;21.00;3.88;;;;;;;19.44;85.07;100736.34;6193019;23;20039;-73
2023/07/03 08:32:48;;;;;;;21.92;3.88;;;;;;;19.33;85.20;100748.72;6244998;23;20024;-73
2023/07/03 08:35:13;;;;;;;27.35;4.25;;;;;;;19.13;86.40;100747.44;6244837;23;20075;-74
2023/07/03 08:37:39;;;;;;;22.45;3.60;;;;;;;19.16;87.44;100750.72;6244932;23;20043;-74
2023/07/03 08:40:06;;;;;;;20.38;3.55;;;;;;;19.62;84.81;100759.13;6168129;23;20389;-74
2023/07/03 08:42:45;;;;;;;16.33;2.97;;;;;;;19.04;85.96;100761.34;6244907;23;20058;-72
2023/07/03 08:45:15;;;;;;;20.05;3.15;;;;;;;18.89;84.97;100749.28;6244880;23;20016;-72
2023/07/03 08:47:41;;;;;;;16.67;3.45;;;;;;;18.76;84.54;100765.56;6218096;23;20004;-71
2023/07/03 08:50:07;;;;;;;19.98;2.83;;;;;;;18.63;85.86;100750.38;6218172;23;20066;-74
2023/07/03 08:52:41;;;;;;;23.48;3.55;;;;;;;18.90;85.43;100765.72;6194267;23;20016;-72
2023/07/03 08:55:11;;;;;;;15.27;3.05;;;;;;;18.78;85.50;100766.28;6220049;23;20008;-72
2023/07/03 08:57:38;;;;;;;26.02;4.55;;;;;;;19.42;81.63;100760.66;6246689;23;20208;-72
2023/07/03 09:00:11;;;;;;;20.98;3.38;;;;;;;19.44;80.34;100764.13;6220090;23;20008;-72
2023/07/03 09:03:13;;;;;;;12.63;2.92;;;;;;;19.89;74.35;100769.94;6220168;23;20004;-72
2023/07/03 09:05:56;;;;;;;14.93;2.83;;;;;;;19.82;74.91;100776.25;6246824;23;20151;-72
2023/07/03 09:08:51;;;;;;;21.13;3.00;;;;;;;20.27;75.42;100773.63;6246525;23;20008;-72
2023/07/03 09:11:19;;;;;;;14.52;3.92;;;;;;;20.16;72.77;100779.63;6219720;23;20475;-72
2023/07/03 09:13:52;;;;;;;16.73;3.97;;;;;;;20.63;72.54;100769.28;6219907;23;20012;-72
2023/07/03 09:16:22;;;;;;;21.73;4.50;;;;;;;20.56;73.24;100771.97;6194708;23;20043;-72
2023/07/03 09:18:53;;;;;;;18.83;3.33;;;;;;;20.44;73.62;100770.72;6219812;23;20012;-72
2023/07/03 09:21:21;;;;;;;16.80;2.53;;;;;;;19.53;74.23;100770.47;6219978;23;20347;-72
2023/07/03 09:24:02;;;;;;;18.08;3.35;;;;;;;19.29;79.54;100775.13;6246409;23;20003;-72
2023/07/03 09:26:42;;;;;;;21.15;3.67;;;;;;;19.23;79.03;100773.97;6219461;23;20020;-73
2023/07/03 09:29:11;;;;;;;17.63;3.00;;;;;;;18.99;81.08;100774.91;6246415;23;20324;-72
2023/07/03 09:31:37;;;;;;;20.08;3.65;;;;;;;18.97;80.97;100768.69;6246231;23;20012;-72
2023/07/03 09:34:03;;;;;;;14.15;3.15;;;;;;;19.36;78.80;100766.94;6194469;23;20043;-72
2023/07/03 09:36:35;;;;;;;19.25;3.55;;;;;;;19.27;79.16;100778.09;6219322;23;20332;-73
2023/07/03 09:39:26;;;;;;;23.00;5.85;;;;;;;20.44;76.87;100767.91;6219764;23;20083;-72
2023/07/03 09:41:53;;;;;;;21.48;4.00;;;;;;;21.16;73.94;100766.47;6239127;23;20070;-73
2023/07/03 09:44:22;;;;;;;29.60;5.13;;;;;;;20.82;72.69;100770.69;6194790;23;20066;-73
2023/07/03 09:46:48;;;;;;;19.20;4.60;;;;;;;20.53;73.58;100753.75;6194179;23;20344;-73
2023/07/03 09:49:28;;;;;;;18.33;4.28;;;;;;;20.84;72.43;100766.66;6219483;23;20027;-73
2023/07/03 09:51:57;;;;;;;24.95;4.22;;;;;;;20.71;72.79;100763.66;6219225;23;20031;-72
2023/07/03 09:54:26;;;;;;;18.45;3.88;;;;;;;21.17;68.14;100766.28;6193878;23;20350;-73
2023/07/03 09:56:52;;;;;;;20.83;4.30;;;;;;;20.66;71.27;100764.25;6246235;23;20004;-72
2023/07/03 09:59:21;;;;;;;15.50;3.53;;;;;;;20.56;70.30;100764.50;6219291;23;20069;-73
2023/07/03 10:01:47;;;;;;;16.50;3.50;;;;;;;20.80;69.95;100768.09;6170579;23;20008;-72
2023/07/03 10:04:15;;;;;;;16.17;3.72;;;;;;;22.19;65.32;100761.66;6193960;23;20008;-73
2023/07/03 10:06:59;;;;;;;14.50;3.30;;;;;;;22.34;63.07;100762.47;6219136;23;20343;-73
2023/07/03 10:09:31;;;;;;;14.60;3.53;;;;;;;22.19;64.02;100770.88;6246184;23;20064;-73
2023/07/03 10:12:11;;;;;;;18.95;3.35;;;;;;;22.60;62.36;100765.69;6219407;23;20035;-73
2023/07/03 10:14:39;;;;;;;23.75;4.25;;;;;;;22.60;62.52;100758.19;6245810;23;20058;-73
2023/07/03 10:17:12;;;;;;;24.00;4.70;;;;;;;22.05;62.94;100762.59;6246073;23;20008;-73
2023/07/03 10:19:40;;;;;;;14.55;3.15;;;;;;;21.24;63.34;100766.38;6194117;23;20436;-73
2023/07/03 10:22:06;;;;;;;17.83;3.88;;;;;;;20.72;64.86;100785.72;6219204;23;20004;-72
2023/07/03 10:24:32;;;;;;;17.00;4.38;;;;;;;20.68;66.43;100775.19;6193822;23;20016;-72
2023/07/03 10:27:01;;;;;;;20.80;4.40;;;;;;;20.85;66.17;100767.53;6194686;23;20102;-72
2023/07/03 10:29:32;;;;;;;22.38;3.72;;;;;;;20.70;66.27;100779.50;6193459;23;20237;-73
2023/07/03 10:32:04;;;;;;;17.13;3.60;;;;;;;20.54;67.28;100776.84;6218939;23;20051;-73
2023/07/03 10:34:37;;;;;;;21.05;4.15;;;;;;;19.83;68.88;100771.56;6218795;23;20119;-73
2023/07/03 10:37:05;;;;;;;21.88;3.75;;;;;;;20.24;68.83;100784.28;6218993;23;20496;-73
2023/07/03 10:39:44;;;;;;;18.42;3.47;;;;;;;20.28;67.64;100769.78;6219445;23;20377;-73
2023/07/03 10:42:18;;;;;;;13.43;3.58;;;;;;;20.29;68.91;100768.75;6218828;23;20304;-72
2023/07/03 10:44:45;;;;;;;21.00;3.78;;;;;;;20.64;66.95;100763.56;6219101;23;20005;-72
2023/07/03 10:47:25;;;;;;;13.65;3.13;;;;;;;20.82;62.98;100763.19;6194074;23;20008;-73
2023/07/03 10:49:51;;;;;;;14.57;3.40;;;;;;;21.30;60.65;100760.88;6218378;23;20427;-72
2023/07/03 10:52:27;;;;;;;14.30;3.35;;;;;;;22.60;59.37;100751.75;6218725;23;20019;-72
2023/07/03 10:55:18;;;;;;;17.10;3.10;;;;;;;22.48;56.93;100762.56;6245881;23;20015;-72
2023/07/03 10:57:49;;;;;;;13.55;3.17;;;;;;;22.67;56.09;100761.00;6245361;23;20008;-76
2023/07/03 11:00:21;;;;;;;9.35;3.03;;;;;;;22.34;55.84;100758.81;6193858;23;20436;-72
2023/07/03 11:03:10;;;;;;;12.95;3.63;;;;;;;22.27;56.20;100757.84;6218743;23;20386;-75
2023/07/03 11:05:42;;;;;;;17.33;3.83;;;;;;;22.80;56.10;100769.47;6226010;23;20004;-73
2023/07/03 11:08:18;;;;;;;19.77;3.33;;;;;;;22.80;55.43;100757.44;6219043;23;20012;-73
2023/07/03 11:11:11;;;;;;;18.25;3.72;;;;;;;23.04;53.95;100764.47;6193805;23;20327;-73
2023/07/03 11:13:51;;;;;;;15.20;3.63;;;;;;;22.12;53.13;100757.94;6218893;23;20668;-72
2023/07/03 11:16:18;;;;;;;13.02;3.25;;;;;;;22.74;53.11;100760.00;6218207;23;20004;-73